createdAt,value
2018-12-23T00:00:00.312Z,88.3
2018-12-23T00:05:11.483Z,88.9
2018-12-23T00:10:00.333Z,88.7
2018-12-23T00:18:25.870Z,88.7
2018-12-23T00:25:42.698Z,88.7
2018-12-23T00:35:02.397Z,88.7
2018-12-23T00:40:12.084Z,88.7
2018-12-23T00:45:03.397Z,88.7
2018-12-23T01:00:36.071Z,91.3
2018-12-23T01:05:09.846Z,91.6
2018-12-23T01:47:26.069Z,94.2
2018-12-23T02:14:43.357Z,96.2
2018-12-23T02:14:54.157Z,96.2
2018-12-23T02:15:00.547Z,96.2
2018-12-23T02:15:18.080Z,96.2
2018-12-23T02:15:23.778Z,96.2
2018-12-23T02:15:29.542Z,96.2
2018-12-23T02:16:16.762Z,96.2
2018-12-23T02:16:25.053Z,96.2
2018-12-23T02:16:32.368Z,96.2
2018-12-23T02:16:45.059Z,96.2
2018-12-23T02:17:25.108Z,96.2
2018-12-23T02:17:26.544Z,96.2
2018-12-23T02:17:35.104Z,96.2
2018-12-23T02:20:11.918Z,96.2
2018-12-23T02:25:05.417Z,97.2
2018-12-23T02:30:00.021Z,97.9
2018-12-23T02:45:00.472Z,99.1
2018-12-23T02:50:03.977Z,99.7
2018-12-23T03:05:05.064Z,100
2018-12-23T03:10:35.658Z,100
2018-12-23T03:15:06.286Z,100
2018-12-23T04:20:37.655Z,100
2018-12-23T04:20:44.447Z,100
2018-12-23T04:21:05.262Z,100
2018-12-23T04:21:37.265Z,100
2018-12-23T08:25:05.626Z,96.2
2018-12-23T08:30:02.085Z,100
2018-12-23T08:35:01.370Z,100
2018-12-23T08:40:02.650Z,100
2018-12-23T08:45:01.495Z,100
2018-12-23T08:50:01.094Z,100
2018-12-23T08:55:02.740Z,100
2018-12-23T09:00:01.368Z,100
2018-12-23T11:25:08.700Z,100
2018-12-23T11:30:02.885Z,100
2018-12-23T11:35:01.487Z,100
2018-12-23T11:40:01.176Z,100
2018-12-23T11:45:01.347Z,100
2018-12-23T11:50:01.314Z,100
2018-12-23T11:55:02.189Z,100
2018-12-23T12:00:01.482Z,100
2018-12-23T12:05:00.929Z,100
2018-12-23T12:10:02.824Z,100
2018-12-23T12:15:01.409Z,100
2018-12-23T12:20:01.085Z,100
2018-12-23T12:25:01.144Z,100
2018-12-23T12:30:01.131Z,100
2018-12-23T12:35:01.335Z,100
2018-12-23T12:40:02.055Z,100
2018-12-23T12:45:01.224Z,100
2018-12-23T12:50:01.218Z,100
2018-12-23T12:55:01.031Z,100
2018-12-23T13:00:01.085Z,100
2018-12-23T13:05:01.169Z,100
2018-12-23T13:10:01.102Z,100
2018-12-23T13:15:01.268Z,100
2018-12-23T13:20:01.936Z,100
2018-12-23T13:25:01.056Z,100
2018-12-23T13:30:01.355Z,100
2018-12-23T13:35:01.125Z,100
2018-12-23T13:40:01.051Z,100
2018-12-23T13:45:00.983Z,100
2018-12-23T13:50:01.166Z,100
2018-12-23T13:55:01.138Z,100
2018-12-23T14:00:01.280Z,100
2018-12-23T14:05:00.986Z,100
2018-12-23T14:10:00.895Z,100
2018-12-23T14:15:00.967Z,100
2018-12-23T14:20:01.127Z,100
2018-12-23T14:25:02.282Z,100
2018-12-23T14:30:01.071Z,100
2018-12-23T14:35:00.881Z,100
2018-12-23T14:40:00.816Z,100
2018-12-23T14:45:01.064Z,100
2018-12-23T14:50:00.819Z,100
2018-12-23T14:55:02.162Z,100
2018-12-23T15:00:01.134Z,100
2018-12-23T15:05:00.910Z,100
2018-12-23T15:10:02.015Z,100
2018-12-23T15:15:01.196Z,100
2018-12-23T15:22:22.573Z,100
2018-12-23T15:25:00.919Z,100
2018-12-23T15:30:00.794Z,100
2018-12-23T15:35:01.102Z,100
2018-12-23T15:40:01.247Z,100
2018-12-23T15:45:01.119Z,100
2018-12-23T15:50:01.076Z,100
2018-12-23T15:55:01.707Z,100
2018-12-23T16:00:01.147Z,100
2018-12-23T16:05:00.864Z,100
2018-12-23T16:11:26.661Z,100
2018-12-23T16:15:00.540Z,100
2018-12-23T16:20:00.885Z,100
2018-12-23T16:25:00.651Z,100
2018-12-23T16:30:01.167Z,100
2018-12-23T16:35:00.655Z,100
2018-12-23T16:40:00.801Z,100
2018-12-23T16:45:00.914Z,100
2018-12-23T16:50:01.280Z,100
2018-12-23T17:25:07.371Z,100
2018-12-23T17:45:19.425Z,100
2018-12-23T17:50:01.783Z,100
2018-12-23T17:55:01.961Z,100
2018-12-23T18:00:02.335Z,100
2018-12-23T18:05:02.175Z,100
2018-12-23T18:10:05.650Z,100
2018-12-23T18:15:03.670Z,100
2018-12-23T18:20:02.249Z,100
2018-12-23T18:25:01.617Z,100
2018-12-23T18:30:01.738Z,100
2018-12-23T18:35:01.752Z,100
2018-12-23T18:40:02.411Z,100
2018-12-23T18:45:01.761Z,100
2018-12-23T18:50:02.012Z,100
2018-12-23T18:55:01.848Z,100
2018-12-23T19:00:02.152Z,100
2018-12-23T19:05:01.675Z,100
2018-12-23T19:10:01.506Z,100
2018-12-23T19:15:01.601Z,100
2018-12-23T19:20:01.813Z,100
2018-12-23T19:25:01.696Z,100
2018-12-23T19:30:01.488Z,100
2018-12-23T19:35:01.672Z,100
2018-12-23T19:40:02.828Z,100
2018-12-23T19:45:01.660Z,100
2018-12-23T19:50:01.659Z,100
2018-12-23T20:05:04.755Z,100
2018-12-23T20:10:01.446Z,100
2018-12-23T20:15:01.382Z,100
2018-12-23T20:20:01.649Z,100
2018-12-23T20:25:01.517Z,100
2018-12-23T20:30:01.548Z,100
2018-12-23T20:35:01.619Z,100
2018-12-23T20:40:01.682Z,100
2018-12-23T20:45:01.567Z,100
2018-12-23T20:50:01.651Z,100
2018-12-23T20:55:01.507Z,100
2018-12-23T21:00:01.408Z,100
2018-12-23T21:05:01.332Z,100
2018-12-23T21:10:01.497Z,100
2018-12-23T21:15:01.320Z,100
2018-12-23T21:20:01.403Z,100
2018-12-23T21:25:01.514Z,100
2018-12-23T21:30:01.489Z,100
2018-12-23T21:35:01.565Z,100
2018-12-23T21:40:01.582Z,100
2018-12-23T21:45:01.286Z,100
2018-12-23T21:50:01.283Z,100
2018-12-23T21:55:01.571Z,100
2018-12-23T22:00:01.310Z,100
2018-12-23T22:05:01.547Z,100
2018-12-23T22:10:01.521Z,100
2018-12-23T22:15:01.343Z,100
2018-12-23T22:20:01.411Z,100
2018-12-23T22:25:01.141Z,100
2018-12-23T22:30:01.356Z,100
2018-12-23T22:35:01.304Z,100
2018-12-23T22:40:01.517Z,100
2018-12-23T22:45:01.484Z,100
2018-12-23T22:50:01.147Z,100
2018-12-23T22:55:01.368Z,100
2018-12-23T23:00:01.259Z,100
2018-12-23T23:05:01.342Z,100
2018-12-23T23:10:01.482Z,100
2018-12-23T23:15:01.355Z,100
2018-12-23T23:20:01.155Z,100
2018-12-23T23:25:01.297Z,100
2018-12-23T23:30:01.305Z,100
2018-12-23T23:35:01.219Z,100
2018-12-23T23:40:01.319Z,100
2018-12-23T23:45:01.226Z,100
2018-12-23T23:50:01.365Z,100
2018-12-23T23:55:01.310Z,100
